createdAt,value
2022-10-20T00:00:53.868Z,7.60
2022-10-20T00:03:20.875Z,6.83
2022-10-20T00:05:47.746Z,7.38
2022-10-20T00:08:14.532Z,7.07
2022-10-20T00:10:41.211Z,7.77
2022-10-20T00:13:07.878Z,7.30
2022-10-20T00:15:34.654Z,6.27
2022-10-20T00:18:02.062Z,7.82
2022-10-20T00:20:28.718Z,7.07
2022-10-20T00:22:55.309Z,7.10
2022-10-20T00:25:21.906Z,6.37
2022-10-20T00:27:48.484Z,6.53
2022-10-20T00:30:15.187Z,6.87
2022-10-20T00:32:41.757Z,7.30
2022-10-20T00:35:08.894Z,7.90
2022-10-20T00:37:35.465Z,6.50
2022-10-20T00:40:02.066Z,7.20
2022-10-20T00:42:28.731Z,7.27
2022-10-20T00:44:59.525Z,6.90
2022-10-20T00:47:42.940Z,6.78
2022-10-20T00:50:17.530Z,7.10
2022-10-20T00:52:45.685Z,7.30
2022-10-20T00:55:15.485Z,6.93
2022-10-20T00:57:44.190Z,7.20
2022-10-20T01:00:11.357Z,6.60
2022-10-20T01:02:38.036Z,7.30
2022-10-20T01:05:05.490Z,6.70
2022-10-20T01:07:32.086Z,6.50
2022-10-20T01:09:58.894Z,7.17
2022-10-20T01:12:56.255Z,6.63
2022-10-20T01:15:42.024Z,7.10
2022-10-20T01:18:14.156Z,6.50
2022-10-20T01:21:10.441Z,6.60
2022-10-20T01:24:03.540Z,6.65
2022-10-20T01:27:07.821Z,6.60
2022-10-20T01:29:56.516Z,7.33
2022-10-20T01:32:49.019Z,7.50
2022-10-20T01:35:50.235Z,7.30
2022-10-20T01:38:46.185Z,7.05
2022-10-20T01:41:58.861Z,6.82
2022-10-20T01:44:28.000Z,7.97
2022-10-20T01:46:56.675Z,7.38
2022-10-20T01:49:24.413Z,6.73
2022-10-20T01:51:53.208Z,7.07
2022-10-20T01:54:27.980Z,7.40
2022-10-20T01:57:26.180Z,6.07
2022-10-20T02:00:02.354Z,6.23
2022-10-20T02:03:17.223Z,6.63
2022-10-20T02:06:05.828Z,6.30
2022-10-20T02:08:40.244Z,8.30
2022-10-20T02:11:12.162Z,7.13
2022-10-20T02:13:39.392Z,6.33
2022-10-20T02:16:13.402Z,7.10
2022-10-20T02:18:43.496Z,5.63
2022-10-20T02:21:10.945Z,6.03
2022-10-20T02:23:42.238Z,5.83
2022-10-20T02:26:14.555Z,5.83
2022-10-20T02:28:47.958Z,6.30
2022-10-20T02:31:14.685Z,7.00
2022-10-20T02:33:44.743Z,6.90
2022-10-20T02:36:16.626Z,6.20
2022-10-20T02:38:43.461Z,6.10
2022-10-20T02:41:10.298Z,5.80
2022-10-20T02:43:36.953Z,5.63
2022-10-20T02:46:04.144Z,6.47
2022-10-20T02:48:30.783Z,6.87
2022-10-20T02:50:57.700Z,6.60
2022-10-20T02:53:24.287Z,6.43
2022-10-20T02:55:50.943Z,6.03
2022-10-20T02:58:20.535Z,5.82
2022-10-20T03:00:49.881Z,6.07
2022-10-20T03:03:18.093Z,6.57
2022-10-20T03:05:45.138Z,5.73
2022-10-20T03:08:12.233Z,5.50
2022-10-20T03:10:38.918Z,6.27
2022-10-20T03:13:05.976Z,7.00
2022-10-20T03:15:32.634Z,5.80
2022-10-20T03:17:59.451Z,5.50
2022-10-20T03:20:26.441Z,5.63
2022-10-20T03:22:53.078Z,5.30
2022-10-20T03:25:19.803Z,6.20
2022-10-20T03:27:46.371Z,6.53
2022-10-20T03:30:13.050Z,5.60
2022-10-20T03:32:42.150Z,6.07
2022-10-20T03:35:09.211Z,6.00
2022-10-20T03:37:35.855Z,5.03
2022-10-20T03:40:02.530Z,6.55
2022-10-20T03:42:29.172Z,6.10
2022-10-20T03:44:55.733Z,5.93
2022-10-20T03:47:24.434Z,5.07
2022-10-20T03:49:50.985Z,6.80
2022-10-20T03:52:17.568Z,5.50
2022-10-20T03:54:44.183Z,5.87
2022-10-20T03:57:10.789Z,5.57
2022-10-20T03:59:37.561Z,5.47
2022-10-20T04:02:04.218Z,5.90
2022-10-20T04:04:30.864Z,5.67
2022-10-20T04:06:57.486Z,5.97
2022-10-20T04:09:24.077Z,6.60
2022-10-20T04:11:50.653Z,5.73
2022-10-20T04:14:17.258Z,6.03
2022-10-20T04:16:43.944Z,5.63
2022-10-20T04:19:10.567Z,6.33
2022-10-20T04:21:37.206Z,5.83
2022-10-20T04:24:05.308Z,5.10
2022-10-20T04:26:31.907Z,5.80
2022-10-20T04:28:58.541Z,5.70
2022-10-20T04:31:25.154Z,5.43
2022-10-20T04:33:51.721Z,5.27
2022-10-20T04:36:18.350Z,6.13
2022-10-20T04:38:44.949Z,6.23
2022-10-20T04:41:11.703Z,5.60
2022-10-20T04:43:38.381Z,7.40
2022-10-20T04:46:08.559Z,6.13
2022-10-20T04:48:36.283Z,6.47
2022-10-20T04:51:08.481Z,7.60
2022-10-20T04:53:35.495Z,6.43
2022-10-20T04:56:02.632Z,6.50
2022-10-20T04:58:31.567Z,5.73
2022-10-20T05:01:06.651Z,6.80
2022-10-20T05:03:34.315Z,6.20
2022-10-20T05:06:14.866Z,5.63
2022-10-20T05:08:43.246Z,6.07
2022-10-20T05:11:10.295Z,6.60
2022-10-20T05:13:37.722Z,6.30
2022-10-20T05:16:05.514Z,6.47
2022-10-20T05:18:32.969Z,6.53
2022-10-20T05:21:14.782Z,6.30
2022-10-20T05:23:42.290Z,5.93
2022-10-20T05:26:11.838Z,6.13
2022-10-20T05:28:39.422Z,6.17
2022-10-20T05:31:08.289Z,7.20
2022-10-20T05:33:35.960Z,6.73
2022-10-20T05:36:16.962Z,7.25
2022-10-20T05:38:46.692Z,6.90
2022-10-20T05:41:16.458Z,6.70
2022-10-20T05:43:47.013Z,7.83
2022-10-20T05:46:13.613Z,6.43
2022-10-20T05:48:43.083Z,5.73
2022-10-20T05:51:15.634Z,6.30
2022-10-20T05:53:46.891Z,6.10
2022-10-20T05:56:16.822Z,6.23
2022-10-20T05:58:45.050Z,6.55
2022-10-20T06:01:23.245Z,6.90
2022-10-20T06:03:55.909Z,7.33
2022-10-20T06:06:26.177Z,7.60
2022-10-20T06:08:53.915Z,7.10
2022-10-20T06:11:21.807Z,7.75
2022-10-20T06:13:51.858Z,6.83
2022-10-20T06:16:25.541Z,6.73
2022-10-20T06:18:52.697Z,6.83
2022-10-20T06:21:27.806Z,7.77
2022-10-20T06:24:03.366Z,8.40
2022-10-20T06:26:32.992Z,7.63
2022-10-20T06:29:04.220Z,7.00
2022-10-20T06:31:38.915Z,8.90
2022-10-20T06:34:07.775Z,8.15
2022-10-20T06:36:37.137Z,6.95
2022-10-20T06:39:06.096Z,7.50
2022-10-20T06:41:33.605Z,7.80
2022-10-20T06:44:00.484Z,7.17
2022-10-20T06:46:30.072Z,6.80
2022-10-20T06:48:59.233Z,7.50
2022-10-20T06:51:26.344Z,6.77
2022-10-20T06:53:53.210Z,7.70
2022-10-20T06:56:28.846Z,7.27
2022-10-20T06:58:56.808Z,7.28
2022-10-20T07:01:27.556Z,7.10
2022-10-20T07:04:10.029Z,7.63
2022-10-20T07:06:42.080Z,7.20
2022-10-20T07:09:14.005Z,7.57
2022-10-20T07:11:41.251Z,6.53
2022-10-20T07:14:07.997Z,8.03
2022-10-20T07:16:35.245Z,8.07
2022-10-20T07:19:03.547Z,7.53
2022-10-20T07:21:34.979Z,8.47
2022-10-20T07:24:05.356Z,7.50
2022-10-20T07:26:35.130Z,6.10
2022-10-20T07:29:03.694Z,8.73
2022-10-20T07:31:39.708Z,7.30
2022-10-20T07:34:23.780Z,8.17
2022-10-20T07:36:51.646Z,7.90
2022-10-20T07:39:18.364Z,7.53
2022-10-20T07:41:47.256Z,6.30
2022-10-20T07:44:14.148Z,6.47
2022-10-20T07:46:40.725Z,7.82
2022-10-20T07:49:38.293Z,7.90
2022-10-20T07:51:55.210Z,7.40
2022-10-20T07:54:21.945Z,7.83
2022-10-20T07:56:49.397Z,7.60
2022-10-20T07:59:16.181Z,8.00
2022-10-20T08:01:44.892Z,8.30
2022-10-20T08:04:12.017Z,7.90
2022-10-20T08:06:39.449Z,7.93
2022-10-20T08:09:07.146Z,8.63
2022-10-20T08:11:33.868Z,7.80
2022-10-20T08:14:00.467Z,8.90
2022-10-20T08:16:29.735Z,8.07
2022-10-20T08:21:37.131Z,8.17
2022-10-20T08:24:03.817Z,8.77
2022-10-20T08:26:30.526Z,7.17
2022-10-20T08:28:57.156Z,8.77
2022-10-20T08:31:23.904Z,8.57
2022-10-20T08:33:52.853Z,8.10
2022-10-20T08:36:20.639Z,7.77
2022-10-20T08:38:47.494Z,8.00
2022-10-20T08:41:34.506Z,8.20
2022-10-20T08:44:03.993Z,8.20
2022-10-20T08:46:40.051Z,8.17
2022-10-20T08:49:15.618Z,8.53
2022-10-20T08:51:42.714Z,8.07
2022-10-20T08:54:15.439Z,8.03
2022-10-20T08:56:43.019Z,8.60
2022-10-20T08:59:33.174Z,8.60
2022-10-20T09:02:00.450Z,7.77
2022-10-20T09:04:37.926Z,8.23
2022-10-20T09:07:16.865Z,9.13
2022-10-20T09:09:43.585Z,9.13
2022-10-20T09:12:13.492Z,9.20
2022-10-20T09:14:40.338Z,9.20
2022-10-20T09:17:16.773Z,9.40
2022-10-20T09:19:48.801Z,8.10
2022-10-20T09:22:16.923Z,9.63
2022-10-20T09:24:44.406Z,9.05
2022-10-20T09:27:23.957Z,9.00
2022-10-20T09:29:50.735Z,7.90
2022-10-20T09:32:51.138Z,8.30
2022-10-20T09:35:30.198Z,8.87
2022-10-20T09:38:29.464Z,8.30
2022-10-20T09:40:56.009Z,11.13
2022-10-20T09:43:24.706Z,10.10
2022-10-20T09:46:01.157Z,9.53
2022-10-20T09:48:32.644Z,9.27
2022-10-20T09:51:00.250Z,8.30
2022-10-20T09:53:32.843Z,9.03
2022-10-20T09:55:59.841Z,9.18
2022-10-20T09:58:33.203Z,8.90
2022-10-20T10:01:20.131Z,9.25
2022-10-20T10:03:58.462Z,9.57
2022-10-20T10:06:39.023Z,11.13
2022-10-20T10:09:50.561Z,10.50
2022-10-20T10:12:19.524Z,9.60
2022-10-20T10:15:01.333Z,10.57
2022-10-20T10:17:36.340Z,9.65
2022-10-20T10:20:11.177Z,14.10
2022-10-20T10:22:39.251Z,9.07
2022-10-20T10:25:07.980Z,10.23
2022-10-20T10:27:36.593Z,9.90
2022-10-20T10:30:29.019Z,9.43
2022-10-20T10:32:56.605Z,9.73
2022-10-20T10:35:43.678Z,10.32
2022-10-20T10:38:12.409Z,10.30
2022-10-20T10:40:51.053Z,9.45
2022-10-20T10:43:52.615Z,10.13
2022-10-20T10:46:26.585Z,8.93
2022-10-20T10:49:17.356Z,9.33
2022-10-20T10:52:01.937Z,10.35
2022-10-20T10:55:01.579Z,9.67
2022-10-20T10:57:44.767Z,9.10
2022-10-20T11:00:25.855Z,10.50
2022-10-20T11:03:15.469Z,10.00
2022-10-20T11:06:03.074Z,10.43
2022-10-20T11:08:54.459Z,10.13
2022-10-20T11:11:30.749Z,10.82
2022-10-20T11:17:05.310Z,10.90
2022-10-20T11:20:06.706Z,9.70
2022-10-20T11:22:46.418Z,9.80
2022-10-20T11:25:38.408Z,10.30
2022-10-20T11:28:20.584Z,10.30
2022-10-20T11:30:47.601Z,9.80
2022-10-20T11:33:18.898Z,10.17
2022-10-20T11:35:58.600Z,10.73
2022-10-20T11:38:51.066Z,10.13
2022-10-20T11:41:25.112Z,8.97
2022-10-20T11:44:08.629Z,10.03
2022-10-20T11:46:41.996Z,10.23
2022-10-20T11:49:12.103Z,9.80
2022-10-20T11:52:14.409Z,11.27
2022-10-20T11:54:50.963Z,10.53
2022-10-20T11:57:41.880Z,10.80
2022-10-20T12:00:26.218Z,10.45
2022-10-20T12:03:17.000Z,9.83
2022-10-20T12:06:09.124Z,11.83
2022-10-20T12:08:43.428Z,10.20
2022-10-20T12:11:41.980Z,10.87
2022-10-20T12:14:14.216Z,10.33
2022-10-20T12:16:55.850Z,12.70
2022-10-20T12:19:29.519Z,11.97
2022-10-20T12:22:16.041Z,11.43
2022-10-20T12:25:02.546Z,13.73
2022-10-20T12:27:30.062Z,12.80
2022-10-20T12:30:01.475Z,18.13
2022-10-20T12:32:28.034Z,19.08
2022-10-20T12:35:23.942Z,18.97
2022-10-20T12:38:04.059Z,15.67
2022-10-20T12:40:30.747Z,16.70
2022-10-20T12:42:57.429Z,15.90
2022-10-20T12:45:36.800Z,16.00
2022-10-20T12:48:05.185Z,16.20
2022-10-20T12:50:45.169Z,15.60
2022-10-20T12:53:18.066Z,17.53
2022-10-20T12:56:01.059Z,16.83
2022-10-20T12:58:38.069Z,17.13
2022-10-20T13:01:10.985Z,16.60
2022-10-20T13:03:43.589Z,16.20
2022-10-20T13:06:40.265Z,14.93
2022-10-20T13:09:07.082Z,15.53
2022-10-20T13:11:40.611Z,17.55
2022-10-20T13:14:13.402Z,16.35
2022-10-20T13:17:02.727Z,16.80
2022-10-20T13:19:43.703Z,16.30
2022-10-20T13:22:28.626Z,16.60
2022-10-20T13:24:57.333Z,16.67
2022-10-20T13:27:23.999Z,16.47
2022-10-20T13:29:51.016Z,18.17
2022-10-20T13:32:33.453Z,16.40
2022-10-20T13:35:09.010Z,15.90
2022-10-20T13:38:00.123Z,16.87
2022-10-20T13:40:45.510Z,17.00
2022-10-20T13:43:34.909Z,17.13
2022-10-20T13:46:22.634Z,19.17
2022-10-20T13:48:54.968Z,16.13
2022-10-20T13:51:34.877Z,17.93
2022-10-20T13:54:05.821Z,17.03
2022-10-20T13:56:46.270Z,17.87
2022-10-20T13:59:18.768Z,20.47
2022-10-20T14:01:48.687Z,19.90
2022-10-20T14:04:25.849Z,19.23
2022-10-20T14:06:52.961Z,16.40
2022-10-20T14:09:25.425Z,21.10
2022-10-20T14:12:02.317Z,20.80
2022-10-20T14:14:30.121Z,19.80
2022-10-20T14:16:59.399Z,19.90
2022-10-20T14:19:28.181Z,18.80
2022-10-20T14:22:14.463Z,19.07
2022-10-20T14:24:44.251Z,19.47
2022-10-20T14:27:21.175Z,20.95
2022-10-20T14:29:48.984Z,19.85
2022-10-20T14:32:21.468Z,21.07
2022-10-20T14:35:00.157Z,20.90
2022-10-20T14:37:34.872Z,20.77
2022-10-20T14:40:05.233Z,20.02
2022-10-20T14:42:33.217Z,20.63
2022-10-20T14:45:01.998Z,20.52
2022-10-20T14:47:34.799Z,20.00
2022-10-20T14:50:02.171Z,22.57
2022-10-20T14:52:32.208Z,21.93
2022-10-20T14:54:58.805Z,20.03
2022-10-20T14:57:25.409Z,22.30
2022-10-20T14:59:56.222Z,21.30
2022-10-20T15:02:25.482Z,24.10
2022-10-20T15:04:52.870Z,24.08
2022-10-20T15:07:31.983Z,22.35
2022-10-20T15:10:15.802Z,22.97
2022-10-20T15:12:45.182Z,21.30
2022-10-20T15:15:11.710Z,23.67
2022-10-20T15:17:44.843Z,21.25
2022-10-20T15:20:30.169Z,20.57
2022-10-20T15:22:58.050Z,19.85
2022-10-20T15:25:26.979Z,22.48
2022-10-20T15:27:55.228Z,23.30
2022-10-20T15:30:23.230Z,21.43
2022-10-20T15:32:51.857Z,20.67
2022-10-20T15:35:20.674Z,20.70
2022-10-20T15:37:52.403Z,19.73
2022-10-20T15:40:20.963Z,21.10
2022-10-20T15:42:48.635Z,19.60
2022-10-20T15:45:24.164Z,20.13
2022-10-20T15:47:51.167Z,20.73
2022-10-20T15:50:21.643Z,20.67
2022-10-20T15:52:50.740Z,19.85
2022-10-20T15:55:37.736Z,19.88
2022-10-20T15:58:04.570Z,19.52
2022-10-20T16:00:31.187Z,21.07
2022-10-20T16:02:57.830Z,20.43
2022-10-20T16:05:25.590Z,21.60
2022-10-20T16:07:54.130Z,32.43
2022-10-20T16:10:22.979Z,25.00
2022-10-20T16:12:49.891Z,22.87
2022-10-20T16:15:17.295Z,25.17
2022-10-20T16:17:45.159Z,20.37
2022-10-20T16:20:12.241Z,24.53
2022-10-20T16:22:39.251Z,22.97
2022-10-20T16:25:06.517Z,23.27
2022-10-20T16:27:33.843Z,24.00
2022-10-20T16:30:01.018Z,24.10
2022-10-20T16:32:32.854Z,23.60
2022-10-20T16:35:03.421Z,24.50
2022-10-20T16:37:31.950Z,23.40
2022-10-20T16:39:59.630Z,22.07
2022-10-20T16:42:27.480Z,22.17
2022-10-20T16:44:54.260Z,24.17
2022-10-20T16:47:20.931Z,22.97
2022-10-20T16:49:47.511Z,24.03
2022-10-20T16:52:14.102Z,24.87
2022-10-20T16:57:11.062Z,24.77
2022-10-20T16:59:38.656Z,25.60
2022-10-20T17:02:05.894Z,25.17
2022-10-20T17:04:33.862Z,25.50
2022-10-20T17:07:00.480Z,25.00
2022-10-20T17:09:27.316Z,26.03
2022-10-20T17:11:53.902Z,26.37
2022-10-20T17:14:20.635Z,26.27
2022-10-20T17:16:47.474Z,25.87
2022-10-20T17:19:14.367Z,28.07
2022-10-20T17:21:40.954Z,27.83
2022-10-20T17:24:11.552Z,27.07
2022-10-20T17:26:39.182Z,29.10
2022-10-20T17:29:06.403Z,28.30
2022-10-20T17:31:32.990Z,28.05
2022-10-20T17:34:00.138Z,28.50
2022-10-20T17:36:28.470Z,28.00
2022-10-20T17:38:57.631Z,26.13
2022-10-20T17:41:24.545Z,27.73
2022-10-20T17:43:51.558Z,26.07
2022-10-20T17:46:19.686Z,27.83
2022-10-20T17:48:47.258Z,24.47
2022-10-20T17:51:15.766Z,26.87
2022-10-20T17:53:45.449Z,27.73
2022-10-20T17:56:13.622Z,27.00
2022-10-20T17:58:43.536Z,27.83
2022-10-20T18:01:17.210Z,27.30
2022-10-20T18:03:46.287Z,24.77
2022-10-20T18:06:19.026Z,26.10
2022-10-20T18:08:46.760Z,25.33
2022-10-20T18:11:16.609Z,25.10
2022-10-20T18:13:43.771Z,24.90
2022-10-20T18:16:12.634Z,24.17
2022-10-20T18:18:39.523Z,24.83
2022-10-20T18:21:08.681Z,24.03
2022-10-20T18:23:36.692Z,23.23
2022-10-20T18:26:08.924Z,24.07
2022-10-20T18:28:36.409Z,23.60
2022-10-20T18:31:08.455Z,22.67
2022-10-20T18:33:35.469Z,24.67
2022-10-20T18:36:07.419Z,23.30
2022-10-20T18:38:41.928Z,27.10
2022-10-20T18:41:20.457Z,24.77
2022-10-20T18:43:53.405Z,24.70
2022-10-20T18:46:24.025Z,23.10
2022-10-20T18:48:50.942Z,25.50
2022-10-20T18:51:17.825Z,23.00
2022-10-20T18:53:46.143Z,24.47
2022-10-20T18:56:14.100Z,24.40
2022-10-20T18:58:42.932Z,23.37
2022-10-20T19:01:12.591Z,25.23
2022-10-20T19:03:40.170Z,24.40
2022-10-20T19:06:16.224Z,24.77
2022-10-20T19:08:42.843Z,24.20
2022-10-20T19:11:12.185Z,25.10
2022-10-20T19:13:39.719Z,22.10
2022-10-20T19:16:10.168Z,23.53
2022-10-20T19:18:40.404Z,25.27
2022-10-20T19:21:08.086Z,25.70
2022-10-20T19:23:38.332Z,25.52
2022-10-20T19:26:10.677Z,24.80
2022-10-20T19:28:41.322Z,24.52
2022-10-20T19:31:21.074Z,26.20
2022-10-20T19:33:52.883Z,26.45
2022-10-20T19:36:20.391Z,26.43
2022-10-20T19:38:48.141Z,26.13
2022-10-20T19:41:15.018Z,27.77
2022-10-20T19:43:41.632Z,26.17
2022-10-20T19:46:10.835Z,25.53
2022-10-20T19:48:37.447Z,29.73
2022-10-20T19:51:04.858Z,27.00
2022-10-20T19:53:31.990Z,25.33
2022-10-20T19:55:58.752Z,25.00
2022-10-20T19:58:25.443Z,25.67
2022-10-20T20:00:56.941Z,24.80
2022-10-20T20:03:24.043Z,26.70
2022-10-20T20:06:20.717Z,26.67
2022-10-20T20:08:49.733Z,26.57
2022-10-20T20:11:23.750Z,26.97
2022-10-20T20:13:51.626Z,25.80
2022-10-20T20:16:18.606Z,26.50
2022-10-20T20:18:45.221Z,25.90
2022-10-20T20:21:12.463Z,27.17
2022-10-20T20:23:47.693Z,27.50
2022-10-20T20:26:25.290Z,25.50
2022-10-20T20:28:53.935Z,26.60
2022-10-20T20:31:21.425Z,25.33
2022-10-20T20:33:48.882Z,24.30
2022-10-20T20:36:15.596Z,25.23
2022-10-20T20:38:42.332Z,27.13
2022-10-20T20:41:16.057Z,26.90
2022-10-20T20:43:45.132Z,25.77
2022-10-20T20:46:17.934Z,24.30
2022-10-20T20:48:44.675Z,26.07
2022-10-20T20:51:12.073Z,27.00
2022-10-20T20:53:39.828Z,26.03
2022-10-20T20:56:09.294Z,27.90
2022-10-20T20:58:36.367Z,23.20
2022-10-20T21:01:18.094Z,25.50
2022-10-20T21:03:45.301Z,28.57
2022-10-20T21:06:16.943Z,25.70
2022-10-20T21:08:47.474Z,26.00
2022-10-20T21:11:17.674Z,23.10
2022-10-20T21:13:46.330Z,26.90
2022-10-20T21:16:19.546Z,26.20
2022-10-20T21:18:49.155Z,28.33
2022-10-20T21:21:21.264Z,25.60
2022-10-20T21:23:48.174Z,26.98
2022-10-20T21:26:17.177Z,25.50
2022-10-20T21:28:44.660Z,25.65
2022-10-20T21:31:14.402Z,24.70
2022-10-20T21:33:41.954Z,24.87
2022-10-20T21:36:13.949Z,26.20
2022-10-20T21:38:41.877Z,29.17
2022-10-20T21:41:09.970Z,26.42
2022-10-20T21:43:38.481Z,24.67
2022-10-20T21:46:16.997Z,27.70
2022-10-20T21:48:45.245Z,26.63
2022-10-20T21:51:26.484Z,29.70
2022-10-20T21:54:01.473Z,28.43
2022-10-20T21:56:28.578Z,28.15
2022-10-20T21:58:55.990Z,34.00
2022-10-20T22:01:24.580Z,32.15
2022-10-20T22:03:52.953Z,29.37
2022-10-20T22:06:25.838Z,28.83
2022-10-20T22:08:57.478Z,27.17
2022-10-20T22:11:28.495Z,27.00
2022-10-20T22:13:55.503Z,28.60
2022-10-20T22:16:25.246Z,27.27
2022-10-20T22:18:57.018Z,26.83
2022-10-20T22:21:23.783Z,28.03
2022-10-20T22:23:53.878Z,29.27
2022-10-20T22:26:21.074Z,27.93
2022-10-20T22:28:49.576Z,25.43
2022-10-20T22:31:18.058Z,27.17
2022-10-20T22:33:44.919Z,28.00
2022-10-20T22:36:11.763Z,26.57
2022-10-20T22:38:38.381Z,27.40
2022-10-20T22:41:05.022Z,28.20
2022-10-20T22:43:32.153Z,26.30
2022-10-20T22:45:58.866Z,26.47
2022-10-20T22:48:25.708Z,25.83
2022-10-20T22:50:52.658Z,27.73
2022-10-20T22:53:19.545Z,26.93
2022-10-20T22:55:46.434Z,28.37
2022-10-20T22:58:13.211Z,27.33
2022-10-20T23:00:40.491Z,29.47
2022-10-20T23:03:07.375Z,29.70
2022-10-20T23:05:34.074Z,27.17
2022-10-20T23:08:00.781Z,30.40
2022-10-20T23:10:27.709Z,27.20
2022-10-20T23:12:54.484Z,27.00
2022-10-20T23:15:21.069Z,25.13
2022-10-20T23:17:47.966Z,25.37
2022-10-20T23:20:14.611Z,26.27
2022-10-20T23:22:41.239Z,27.40
2022-10-20T23:25:08.203Z,27.00
2022-10-20T23:27:36.249Z,26.30
2022-10-20T23:30:03.472Z,24.53
2022-10-20T23:32:30.127Z,24.75
2022-10-20T23:34:56.782Z,24.43
2022-10-20T23:37:23.600Z,24.53
2022-10-20T23:39:50.342Z,24.43
2022-10-20T23:42:17.326Z,25.70
2022-10-20T23:44:44.015Z,25.75
2022-10-20T23:47:10.581Z,24.67
2022-10-20T23:49:37.154Z,25.30
2022-10-20T23:52:03.775Z,24.63
2022-10-20T23:54:30.381Z,26.00
2022-10-20T23:56:56.941Z,26.93
2022-10-20T23:59:23.537Z,23.60
